sensor_id;sensor_type;location;lat;lon;timestamp;P1;durP1;ratioP1;P2;durP2;ratioP2
50968;SDS011;36982;51.474;7.228;2023-11-19T00:00:28;2.50;;;0.87;;
50968;SDS011;36982;51.474;7.228;2023-11-19T00:02:54;0.97;;;0.83;;
50968;SDS011;36982;51.474;7.228;2023-11-19T00:05:19;1.10;;;0.90;;
50968;SDS011;36982;51.474;7.228;2023-11-19T00:07:45;1.07;;;0.97;;
50968;SDS011;36982;51.474;7.228;2023-11-19T00:10:14;1.33;;;1.10;;
50968;SDS011;36982;51.474;7.228;2023-11-19T00:12:44;1.97;;;0.90;;
50968;SDS011;36982;51.474;7.228;2023-11-19T00:15:11;1.50;;;1.20;;
50968;SDS011;36982;51.474;7.228;2023-11-19T00:17:41;1.67;;;1.30;;
50968;SDS011;36982;51.474;7.228;2023-11-19T00:20:19;2.50;;;1.47;;
50968;SDS011;36982;51.474;7.228;2023-11-19T00:22:47;2.60;;;1.70;;
50968;SDS011;36982;51.474;7.228;2023-11-19T00:25:19;2.33;;;1.33;;
50968;SDS011;36982;51.474;7.228;2023-11-19T00:27:46;2.60;;;1.47;;
50968;SDS011;36982;51.474;7.228;2023-11-19T00:30:13;2.53;;;1.70;;
50968;SDS011;36982;51.474;7.228;2023-11-19T00:32:39;2.40;;;1.77;;
50968;SDS011;36982;51.474;7.228;2023-11-19T00:35:05;1.63;;;1.53;;
50968;SDS011;36982;51.474;7.228;2023-11-19T00:37:32;1.80;;;1.63;;
50968;SDS011;36982;51.474;7.228;2023-11-19T00:39:58;4.83;;;1.80;;
50968;SDS011;36982;51.474;7.228;2023-11-19T00:42:23;2.20;;;1.90;;
50968;SDS011;36982;51.474;7.228;2023-11-19T00:44:50;3.37;;;1.83;;
50968;SDS011;36982;51.474;7.228;2023-11-19T00:47:16;2.43;;;1.73;;
50968;SDS011;36982;51.474;7.228;2023-11-19T00:49:42;3.07;;;2.23;;
50968;SDS011;36982;51.474;7.228;2023-11-19T00:52:08;3.03;;;2.23;;
50968;SDS011;36982;51.474;7.228;2023-11-19T00:54:34;3.07;;;2.47;;
50968;SDS011;36982;51.474;7.228;2023-11-19T00:56:59;3.13;;;2.20;;
50968;SDS011;36982;51.474;7.228;2023-11-19T00:59:26;4.20;;;2.37;;
50968;SDS011;36982;51.474;7.228;2023-11-19T01:01:53;4.30;;;2.40;;
50968;SDS011;36982;51.474;7.228;2023-11-19T01:04:19;2.73;;;1.97;;
50968;SDS011;36982;51.474;7.228;2023-11-19T01:06:44;4.10;;;2.57;;
50968;SDS011;36982;51.474;7.228;2023-11-19T01:09:10;3.30;;;2.70;;
50968;SDS011;36982;51.474;7.228;2023-11-19T01:11:35;2.80;;;2.50;;
50968;SDS011;36982;51.474;7.228;2023-11-19T01:14:01;7.40;;;2.33;;
50968;SDS011;36982;51.474;7.228;2023-11-19T01:16:27;3.80;;;2.10;;
50968;SDS011;36982;51.474;7.228;2023-11-19T01:18:53;2.87;;;2.50;;
50968;SDS011;36982;51.474;7.228;2023-11-19T01:21:19;3.47;;;2.17;;
50968;SDS011;36982;51.474;7.228;2023-11-19T01:23:45;3.03;;;2.47;;
50968;SDS011;36982;51.474;7.228;2023-11-19T01:26:11;3.07;;;2.40;;
50968;SDS011;36982;51.474;7.228;2023-11-19T01:28:37;4.93;;;2.40;;
50968;SDS011;36982;51.474;7.228;2023-11-19T01:31:10;2.20;;;2.00;;
50968;SDS011;36982;51.474;7.228;2023-11-19T01:33:36;2.10;;;1.90;;
50968;SDS011;36982;51.474;7.228;2023-11-19T01:36:02;2.10;;;1.90;;
50968;SDS011;36982;51.474;7.228;2023-11-19T01:38:29;2.10;;;1.63;;
50968;SDS011;36982;51.474;7.228;2023-11-19T01:40:56;1.90;;;1.57;;
50968;SDS011;36982;51.474;7.228;2023-11-19T01:43:39;2.57;;;1.70;;
50968;SDS011;36982;51.474;7.228;2023-11-19T01:46:08;2.17;;;1.50;;
50968;SDS011;36982;51.474;7.228;2023-11-19T01:48:37;2.67;;;1.10;;
50968;SDS011;36982;51.474;7.228;2023-11-19T01:51:07;2.60;;;1.20;;
50968;SDS011;36982;51.474;7.228;2023-11-19T01:53:34;1.30;;;1.00;;
50968;SDS011;36982;51.474;7.228;2023-11-19T01:56:03;2.47;;;1.40;;
50968;SDS011;36982;51.474;7.228;2023-11-19T01:58:33;1.67;;;1.50;;
50968;SDS011;36982;51.474;7.228;2023-11-19T02:01:00;1.67;;;1.00;;
50968;SDS011;36982;51.474;7.228;2023-11-19T02:03:28;3.20;;;1.60;;
50968;SDS011;36982;51.474;7.228;2023-11-19T02:05:56;2.10;;;1.50;;
50968;SDS011;36982;51.474;7.228;2023-11-19T02:08:22;2.20;;;1.37;;
50968;SDS011;36982;51.474;7.228;2023-11-19T02:10:48;1.57;;;1.40;;
50968;SDS011;36982;51.474;7.228;2023-11-19T02:13:14;1.97;;;1.70;;
50968;SDS011;36982;51.474;7.228;2023-11-19T02:15:41;1.67;;;1.30;;
50968;SDS011;36982;51.474;7.228;2023-11-19T02:20:46;1.93;;;1.23;;
50968;SDS011;36982;51.474;7.228;2023-11-19T02:23:13;2.10;;;1.53;;
50968;SDS011;36982;51.474;7.228;2023-11-19T02:25:39;4.07;;;1.37;;
50968;SDS011;36982;51.474;7.228;2023-11-19T02:28:05;2.80;;;2.03;;
50968;SDS011;36982;51.474;7.228;2023-11-19T02:30:32;3.63;;;1.40;;
50968;SDS011;36982;51.474;7.228;2023-11-19T02:33:00;2.73;;;1.40;;
50968;SDS011;36982;51.474;7.228;2023-11-19T02:35:30;4.50;;;1.63;;
50968;SDS011;36982;51.474;7.228;2023-11-19T02:37:57;5.17;;;1.63;;
50968;SDS011;36982;51.474;7.228;2023-11-19T02:40:24;3.10;;;1.33;;
50968;SDS011;36982;51.474;7.228;2023-11-19T02:42:50;4.07;;;1.60;;
50968;SDS011;36982;51.474;7.228;2023-11-19T02:45:17;3.20;;;1.67;;
50968;SDS011;36982;51.474;7.228;2023-11-19T02:47:43;4.70;;;1.87;;
50968;SDS011;36982;51.474;7.228;2023-11-19T02:50:09;3.70;;;1.50;;
50968;SDS011;36982;51.474;7.228;2023-11-19T02:52:41;4.47;;;1.50;;
50968;SDS011;36982;51.474;7.228;2023-11-19T02:55:08;3.07;;;1.30;;
50968;SDS011;36982;51.474;7.228;2023-11-19T02:57:37;2.93;;;1.70;;
50968;SDS011;36982;51.474;7.228;2023-11-19T03:00:03;5.23;;;1.50;;
50968;SDS011;36982;51.474;7.228;2023-11-19T03:02:38;5.90;;;2.23;;
50968;SDS011;36982;51.474;7.228;2023-11-19T03:05:09;3.23;;;1.23;;
50968;SDS011;36982;51.474;7.228;2023-11-19T03:07:36;4.70;;;1.63;;
50968;SDS011;36982;51.474;7.228;2023-11-19T03:10:01;3.70;;;1.53;;
50968;SDS011;36982;51.474;7.228;2023-11-19T03:12:30;3.57;;;1.53;;
50968;SDS011;36982;51.474;7.228;2023-11-19T03:14:56;4.00;;;1.70;;
50968;SDS011;36982;51.474;7.228;2023-11-19T03:17:21;8.67;;;1.73;;
50968;SDS011;36982;51.474;7.228;2023-11-19T03:19:49;4.37;;;1.60;;
50968;SDS011;36982;51.474;7.228;2023-11-19T03:22:15;5.63;;;1.80;;
50968;SDS011;36982;51.474;7.228;2023-11-19T03:24:40;6.63;;;1.70;;
50968;SDS011;36982;51.474;7.228;2023-11-19T03:27:06;6.60;;;1.67;;
50968;SDS011;36982;51.474;7.228;2023-11-19T03:29:31;6.87;;;2.00;;
50968;SDS011;36982;51.474;7.228;2023-11-19T03:31:57;6.80;;;2.20;;
50968;SDS011;36982;51.474;7.228;2023-11-19T03:34:23;6.80;;;1.80;;
50968;SDS011;36982;51.474;7.228;2023-11-19T03:36:48;8.63;;;1.60;;
50968;SDS011;36982;51.474;7.228;2023-11-19T03:39:14;7.73;;;1.77;;
50968;SDS011;36982;51.474;7.228;2023-11-19T03:41:39;6.67;;;1.97;;
50968;SDS011;36982;51.474;7.228;2023-11-19T03:44:05;6.63;;;1.90;;
50968;SDS011;36982;51.474;7.228;2023-11-19T03:46:31;5.87;;;2.00;;
50968;SDS011;36982;51.474;7.228;2023-11-19T03:48:56;8.60;;;2.30;;
50968;SDS011;36982;51.474;7.228;2023-11-19T03:51:22;7.40;;;2.33;;
50968;SDS011;36982;51.474;7.228;2023-11-19T03:53:47;9.67;;;2.17;;
50968;SDS011;36982;51.474;7.228;2023-11-19T03:56:13;12.10;;;2.40;;
50968;SDS011;36982;51.474;7.228;2023-11-19T03:58:39;7.17;;;2.60;;
50968;SDS011;36982;51.474;7.228;2023-11-19T04:01:05;10.97;;;2.10;;
50968;SDS011;36982;51.474;7.228;2023-11-19T04:03:31;8.87;;;2.77;;
50968;SDS011;36982;51.474;7.228;2023-11-19T04:05:56;8.37;;;2.30;;
50968;SDS011;36982;51.474;7.228;2023-11-19T04:08:22;7.97;;;2.97;;
50968;SDS011;36982;51.474;7.228;2023-11-19T04:10:48;6.93;;;2.10;;
50968;SDS011;36982;51.474;7.228;2023-11-19T04:13:14;12.90;;;3.10;;
50968;SDS011;36982;51.474;7.228;2023-11-19T04:15:39;11.47;;;3.10;;
50968;SDS011;36982;51.474;7.228;2023-11-19T04:18:05;9.10;;;2.50;;
50968;SDS011;36982;51.474;7.228;2023-11-19T04:20:30;8.43;;;2.30;;
50968;SDS011;36982;51.474;7.228;2023-11-19T04:22:56;11.63;;;2.33;;
50968;SDS011;36982;51.474;7.228;2023-11-19T04:25:22;13.20;;;2.77;;
50968;SDS011;36982;51.474;7.228;2023-11-19T04:27:51;6.90;;;2.00;;
50968;SDS011;36982;51.474;7.228;2023-11-19T04:30:16;10.40;;;2.10;;
50968;SDS011;36982;51.474;7.228;2023-11-19T04:32:43;10.60;;;2.70;;
50968;SDS011;36982;51.474;7.228;2023-11-19T04:35:09;10.23;;;2.33;;
50968;SDS011;36982;51.474;7.228;2023-11-19T04:37:34;9.63;;;1.97;;
50968;SDS011;36982;51.474;7.228;2023-11-19T04:40:00;9.07;;;2.63;;
50968;SDS011;36982;51.474;7.228;2023-11-19T04:42:26;8.87;;;3.23;;
50968;SDS011;36982;51.474;7.228;2023-11-19T04:44:51;13.07;;;2.73;;
50968;SDS011;36982;51.474;7.228;2023-11-19T04:47:17;14.20;;;2.50;;
50968;SDS011;36982;51.474;7.228;2023-11-19T04:49:43;14.33;;;2.67;;
50968;SDS011;36982;51.474;7.228;2023-11-19T04:52:08;13.83;;;2.40;;
50968;SDS011;36982;51.474;7.228;2023-11-19T04:54:34;13.57;;;3.00;;
50968;SDS011;36982;51.474;7.228;2023-11-19T04:57:00;16.53;;;3.40;;
50968;SDS011;36982;51.474;7.228;2023-11-19T04:59:25;15.13;;;3.30;;
50968;SDS011;36982;51.474;7.228;2023-11-19T05:01:52;14.60;;;2.57;;
50968;SDS011;36982;51.474;7.228;2023-11-19T05:04:18;18.60;;;3.40;;
50968;SDS011;36982;51.474;7.228;2023-11-19T05:06:43;18.37;;;3.50;;
50968;SDS011;36982;51.474;7.228;2023-11-19T05:09:09;13.17;;;3.37;;
50968;SDS011;36982;51.474;7.228;2023-11-19T05:11:38;14.63;;;2.77;;
50968;SDS011;36982;51.474;7.228;2023-11-19T05:14:04;11.27;;;2.50;;
50968;SDS011;36982;51.474;7.228;2023-11-19T05:16:30;13.17;;;3.50;;
50968;SDS011;36982;51.474;7.228;2023-11-19T05:18:56;15.63;;;3.10;;
50968;SDS011;36982;51.474;7.228;2023-11-19T05:21:21;7.33;;;2.47;;
50968;SDS011;36982;51.474;7.228;2023-11-19T05:23:47;11.37;;;3.07;;
50968;SDS011;36982;51.474;7.228;2023-11-19T05:26:20;14.97;;;3.17;;
50968;SDS011;36982;51.474;7.228;2023-11-19T05:28:46;15.60;;;2.43;;
50968;SDS011;36982;51.474;7.228;2023-11-19T05:31:12;15.03;;;2.93;;
50968;SDS011;36982;51.474;7.228;2023-11-19T05:33:38;12.80;;;3.70;;
50968;SDS011;36982;51.474;7.228;2023-11-19T05:36:04;16.97;;;3.17;;
50968;SDS011;36982;51.474;7.228;2023-11-19T05:38:30;18.00;;;3.23;;
50968;SDS011;36982;51.474;7.228;2023-11-19T05:40:56;14.30;;;2.70;;
50968;SDS011;36982;51.474;7.228;2023-11-19T05:43:22;14.33;;;3.33;;
50968;SDS011;36982;51.474;7.228;2023-11-19T05:45:47;12.33;;;2.50;;
50968;SDS011;36982;51.474;7.228;2023-11-19T05:48:13;9.93;;;2.30;;
50968;SDS011;36982;51.474;7.228;2023-11-19T05:50:39;16.37;;;2.93;;
50968;SDS011;36982;51.474;7.228;2023-11-19T05:53:04;10.63;;;2.50;;
50968;SDS011;36982;51.474;7.228;2023-11-19T05:55:34;9.20;;;2.70;;
50968;SDS011;36982;51.474;7.228;2023-11-19T05:58:01;22.40;;;2.97;;
50968;SDS011;36982;51.474;7.228;2023-11-19T06:00:28;9.97;;;2.40;;
50968;SDS011;36982;51.474;7.228;2023-11-19T06:02:53;9.60;;;2.20;;
50968;SDS011;36982;51.474;7.228;2023-11-19T06:05:19;13.50;;;2.93;;
50968;SDS011;36982;51.474;7.228;2023-11-19T06:07:44;10.97;;;2.43;;
50968;SDS011;36982;51.474;7.228;2023-11-19T06:10:11;19.50;;;3.30;;
50968;SDS011;36982;51.474;7.228;2023-11-19T06:12:39;10.10;;;2.53;;
50968;SDS011;36982;51.474;7.228;2023-11-19T06:15:06;14.63;;;3.23;;
50968;SDS011;36982;51.474;7.228;2023-11-19T06:17:33;17.77;;;3.80;;
50968;SDS011;36982;51.474;7.228;2023-11-19T06:19:59;13.17;;;3.53;;
50968;SDS011;36982;51.474;7.228;2023-11-19T06:22:25;12.77;;;3.30;;
50968;SDS011;36982;51.474;7.228;2023-11-19T06:24:50;14.20;;;2.60;;
50968;SDS011;36982;51.474;7.228;2023-11-19T06:27:16;16.80;;;3.20;;
50968;SDS011;36982;51.474;7.228;2023-11-19T06:29:41;13.47;;;2.60;;
50968;SDS011;36982;51.474;7.228;2023-11-19T06:32:07;20.57;;;2.70;;
50968;SDS011;36982;51.474;7.228;2023-11-19T06:34:33;15.33;;;3.10;;
50968;SDS011;36982;51.474;7.228;2023-11-19T06:36:59;18.73;;;3.07;;
50968;SDS011;36982;51.474;7.228;2023-11-19T06:39:24;13.97;;;2.40;;
50968;SDS011;36982;51.474;7.228;2023-11-19T06:41:50;10.43;;;2.37;;
50968;SDS011;36982;51.474;7.228;2023-11-19T06:44:17;14.33;;;2.63;;
50968;SDS011;36982;51.474;7.228;2023-11-19T06:46:42;11.17;;;2.90;;
50968;SDS011;36982;51.474;7.228;2023-11-19T06:49:09;16.37;;;3.00;;
50968;SDS011;36982;51.474;7.228;2023-11-19T06:51:35;17.80;;;2.63;;
50968;SDS011;36982;51.474;7.228;2023-11-19T06:54:00;15.57;;;3.97;;
50968;SDS011;36982;51.474;7.228;2023-11-19T06:56:26;11.57;;;2.87;;
50968;SDS011;36982;51.474;7.228;2023-11-19T06:58:51;16.13;;;2.83;;
50968;SDS011;36982;51.474;7.228;2023-11-19T07:01:18;14.97;;;3.03;;
50968;SDS011;36982;51.474;7.228;2023-11-19T07:03:44;15.10;;;2.70;;
50968;SDS011;36982;51.474;7.228;2023-11-19T07:06:11;14.77;;;2.93;;
50968;SDS011;36982;51.474;7.228;2023-11-19T07:08:38;18.30;;;3.40;;
50968;SDS011;36982;51.474;7.228;2023-11-19T07:11:04;14.87;;;2.27;;
50968;SDS011;36982;51.474;7.228;2023-11-19T07:13:29;10.67;;;2.90;;
50968;SDS011;36982;51.474;7.228;2023-11-19T07:15:58;14.17;;;3.40;;
50968;SDS011;36982;51.474;7.228;2023-11-19T07:18:24;15.57;;;3.00;;
50968;SDS011;36982;51.474;7.228;2023-11-19T07:20:50;15.67;;;2.50;;
50968;SDS011;36982;51.474;7.228;2023-11-19T07:23:16;14.53;;;2.77;;
50968;SDS011;36982;51.474;7.228;2023-11-19T07:25:44;17.13;;;3.37;;
50968;SDS011;36982;51.474;7.228;2023-11-19T07:28:15;14.77;;;2.83;;
50968;SDS011;36982;51.474;7.228;2023-11-19T07:30:41;16.10;;;3.47;;
50968;SDS011;36982;51.474;7.228;2023-11-19T07:33:07;14.07;;;3.20;;
50968;SDS011;36982;51.474;7.228;2023-11-19T07:35:33;15.50;;;3.00;;
50968;SDS011;36982;51.474;7.228;2023-11-19T07:37:59;17.10;;;2.97;;
50968;SDS011;36982;51.474;7.228;2023-11-19T07:40:24;9.87;;;2.17;;
50968;SDS011;36982;51.474;7.228;2023-11-19T07:42:50;16.40;;;2.40;;
50968;SDS011;36982;51.474;7.228;2023-11-19T07:45:16;14.87;;;3.30;;
50968;SDS011;36982;51.474;7.228;2023-11-19T07:47:42;14.30;;;2.70;;
50968;SDS011;36982;51.474;7.228;2023-11-19T07:50:11;15.57;;;2.93;;
50968;SDS011;36982;51.474;7.228;2023-11-19T07:52:39;12.73;;;2.47;;
50968;SDS011;36982;51.474;7.228;2023-11-19T07:55:04;15.97;;;3.37;;
50968;SDS011;36982;51.474;7.228;2023-11-19T07:57:30;12.60;;;2.93;;
50968;SDS011;36982;51.474;7.228;2023-11-19T07:59:56;17.00;;;3.40;;
50968;SDS011;36982;51.474;7.228;2023-11-19T08:02:22;19.77;;;2.90;;
50968;SDS011;36982;51.474;7.228;2023-11-19T08:04:49;18.23;;;2.97;;
50968;SDS011;36982;51.474;7.228;2023-11-19T08:07:16;11.13;;;2.53;;
50968;SDS011;36982;51.474;7.228;2023-11-19T08:09:44;14.40;;;3.00;;
50968;SDS011;36982;51.474;7.228;2023-11-19T08:12:10;15.73;;;2.83;;
50968;SDS011;36982;51.474;7.228;2023-11-19T08:14:36;15.80;;;2.73;;
50968;SDS011;36982;51.474;7.228;2023-11-19T08:17:02;15.33;;;3.33;;
50968;SDS011;36982;51.474;7.228;2023-11-19T08:19:28;15.17;;;3.57;;
50968;SDS011;36982;51.474;7.228;2023-11-19T08:21:53;17.13;;;3.03;;
50968;SDS011;36982;51.474;7.228;2023-11-19T08:24:19;15.03;;;2.47;;
50968;SDS011;36982;51.474;7.228;2023-11-19T08:26:44;17.07;;;3.57;;
50968;SDS011;36982;51.474;7.228;2023-11-19T08:29:10;15.53;;;2.70;;
50968;SDS011;36982;51.474;7.228;2023-11-19T08:31:36;14.20;;;3.23;;
50968;SDS011;36982;51.474;7.228;2023-11-19T08:34:01;14.17;;;2.70;;
50968;SDS011;36982;51.474;7.228;2023-11-19T08:36:27;13.17;;;2.73;;
50968;SDS011;36982;51.474;7.228;2023-11-19T08:38:53;8.87;;;1.93;;
50968;SDS011;36982;51.474;7.228;2023-11-19T08:41:19;11.03;;;3.23;;
50968;SDS011;36982;51.474;7.228;2023-11-19T08:43:44;14.87;;;2.40;;
50968;SDS011;36982;51.474;7.228;2023-11-19T08:46:11;21.30;;;3.23;;
50968;SDS011;36982;51.474;7.228;2023-11-19T08:48:37;14.27;;;3.27;;
50968;SDS011;36982;51.474;7.228;2023-11-19T08:51:03;17.23;;;3.00;;
50968;SDS011;36982;51.474;7.228;2023-11-19T08:53:29;13.07;;;2.77;;
50968;SDS011;36982;51.474;7.228;2023-11-19T08:55:55;16.70;;;3.07;;
50968;SDS011;36982;51.474;7.228;2023-11-19T08:58:20;15.90;;;3.13;;
50968;SDS011;36982;51.474;7.228;2023-11-19T09:00:46;13.20;;;3.07;;
50968;SDS011;36982;51.474;7.228;2023-11-19T09:03:12;13.57;;;2.50;;
50968;SDS011;36982;51.474;7.228;2023-11-19T09:05:38;16.60;;;3.77;;
50968;SDS011;36982;51.474;7.228;2023-11-19T09:08:03;20.37;;;3.03;;
50968;SDS011;36982;51.474;7.228;2023-11-19T09:10:29;17.87;;;5.20;;
50968;SDS011;36982;51.474;7.228;2023-11-19T09:12:55;12.33;;;2.57;;
50968;SDS011;36982;51.474;7.228;2023-11-19T09:15:21;13.77;;;3.13;;
50968;SDS011;36982;51.474;7.228;2023-11-19T09:17:46;14.93;;;2.80;;
50968;SDS011;36982;51.474;7.228;2023-11-19T09:20:12;14.57;;;2.87;;
50968;SDS011;36982;51.474;7.228;2023-11-19T09:22:40;10.10;;;2.70;;
50968;SDS011;36982;51.474;7.228;2023-11-19T09:25:06;12.63;;;2.63;;
50968;SDS011;36982;51.474;7.228;2023-11-19T09:27:32;15.60;;;3.43;;
50968;SDS011;36982;51.474;7.228;2023-11-19T09:29:58;17.23;;;4.20;;
50968;SDS011;36982;51.474;7.228;2023-11-19T09:32:24;15.30;;;2.83;;
50968;SDS011;36982;51.474;7.228;2023-11-19T09:34:50;21.73;;;3.40;;
50968;SDS011;36982;51.474;7.228;2023-11-19T09:37:15;14.93;;;3.77;;
50968;SDS011;36982;51.474;7.228;2023-11-19T09:39:41;13.23;;;2.90;;
50968;SDS011;36982;51.474;7.228;2023-11-19T09:42:09;13.53;;;2.43;;
50968;SDS011;36982;51.474;7.228;2023-11-19T09:44:36;14.73;;;3.53;;
50968;SDS011;36982;51.474;7.228;2023-11-19T09:47:04;15.37;;;3.30;;
50968;SDS011;36982;51.474;7.228;2023-11-19T09:49:30;15.30;;;3.10;;
50968;SDS011;36982;51.474;7.228;2023-11-19T09:51:56;13.93;;;3.20;;
50968;SDS011;36982;51.474;7.228;2023-11-19T09:54:22;12.57;;;2.47;;
50968;SDS011;36982;51.474;7.228;2023-11-19T09:56:47;16.97;;;3.20;;
50968;SDS011;36982;51.474;7.228;2023-11-19T09:59:13;15.47;;;3.90;;
50968;SDS011;36982;51.474;7.228;2023-11-19T10:01:39;8.07;;;1.90;;
50968;SDS011;36982;51.474;7.228;2023-11-19T10:04:05;17.97;;;3.30;;
50968;SDS011;36982;51.474;7.228;2023-11-19T10:06:32;17.70;;;3.00;;
50968;SDS011;36982;51.474;7.228;2023-11-19T10:08:57;17.53;;;3.73;;
50968;SDS011;36982;51.474;7.228;2023-11-19T10:11:24;11.23;;;2.73;;
50968;SDS011;36982;51.474;7.228;2023-11-19T10:13:51;16.10;;;3.37;;
50968;SDS011;36982;51.474;7.228;2023-11-19T10:16:18;16.10;;;3.73;;
50968;SDS011;36982;51.474;7.228;2023-11-19T10:18:47;16.87;;;3.13;;
50968;SDS011;36982;51.474;7.228;2023-11-19T10:21:17;15.77;;;3.13;;
50968;SDS011;36982;51.474;7.228;2023-11-19T10:23:50;14.80;;;4.00;;
50968;SDS011;36982;51.474;7.228;2023-11-19T10:26:21;12.13;;;3.40;;
50968;SDS011;36982;51.474;7.228;2023-11-19T10:28:47;18.97;;;3.47;;
50968;SDS011;36982;51.474;7.228;2023-11-19T10:31:14;17.73;;;3.70;;
50968;SDS011;36982;51.474;7.228;2023-11-19T10:33:40;14.83;;;2.80;;
50968;SDS011;36982;51.474;7.228;2023-11-19T10:36:06;16.37;;;3.57;;
50968;SDS011;36982;51.474;7.228;2023-11-19T10:38:32;15.07;;;3.33;;
50968;SDS011;36982;51.474;7.228;2023-11-19T10:40:58;16.37;;;3.10;;
50968;SDS011;36982;51.474;7.228;2023-11-19T10:43:24;15.00;;;4.10;;
50968;SDS011;36982;51.474;7.228;2023-11-19T10:45:50;17.87;;;3.30;;
50968;SDS011;36982;51.474;7.228;2023-11-19T10:48:16;14.00;;;2.43;;
50968;SDS011;36982;51.474;7.228;2023-11-19T10:50:44;15.83;;;3.07;;
50968;SDS011;36982;51.474;7.228;2023-11-19T10:53:11;19.33;;;2.97;;
50968;SDS011;36982;51.474;7.228;2023-11-19T10:55:38;12.33;;;3.13;;
50968;SDS011;36982;51.474;7.228;2023-11-19T10:58:05;12.27;;;2.70;;
50968;SDS011;36982;51.474;7.228;2023-11-19T11:03:19;14.37;;;2.97;;
50968;SDS011;36982;51.474;7.228;2023-11-19T11:05:47;16.20;;;3.47;;
50968;SDS011;36982;51.474;7.228;2023-11-19T11:08:13;14.37;;;3.00;;
50968;SDS011;36982;51.474;7.228;2023-11-19T11:10:43;15.03;;;2.60;;
50968;SDS011;36982;51.474;7.228;2023-11-19T11:13:20;22.63;;;3.40;;
50968;SDS011;36982;51.474;7.228;2023-11-19T11:15:48;12.33;;;3.00;;
50968;SDS011;36982;51.474;7.228;2023-11-19T11:18:15;13.33;;;2.77;;
50968;SDS011;36982;51.474;7.228;2023-11-19T11:20:44;16.80;;;3.57;;
50968;SDS011;36982;51.474;7.228;2023-11-19T11:39:34;11.20;;;3.23;;
50968;SDS011;36982;51.474;7.228;2023-11-19T11:45:03;13.13;;;2.60;;
50968;SDS011;36982;51.474;7.228;2023-11-19T11:50:11;15.60;;;3.03;;
50968;SDS011;36982;51.474;7.228;2023-11-19T11:57:52;3.83;;;1.43;;
50968;SDS011;36982;51.474;7.228;2023-11-19T12:00:21;19.17;;;3.07;;
50968;SDS011;36982;51.474;7.228;2023-11-19T12:02:51;13.07;;;2.80;;
50968;SDS011;36982;51.474;7.228;2023-11-19T12:05:17;11.30;;;2.33;;
50968;SDS011;36982;51.474;7.228;2023-11-19T12:07:44;10.33;;;2.20;;
50968;SDS011;36982;51.474;7.228;2023-11-19T12:10:30;13.23;;;2.57;;
50968;SDS011;36982;51.474;7.228;2023-11-19T12:13:00;14.10;;;3.00;;
50968;SDS011;36982;51.474;7.228;2023-11-19T12:15:26;13.30;;;2.73;;
50968;SDS011;36982;51.474;7.228;2023-11-19T12:17:53;11.20;;;2.30;;
50968;SDS011;36982;51.474;7.228;2023-11-19T12:20:23;19.73;;;2.77;;
50968;SDS011;36982;51.474;7.228;2023-11-19T12:22:51;12.27;;;2.90;;
50968;SDS011;36982;51.474;7.228;2023-11-19T12:25:17;11.63;;;2.97;;
50968;SDS011;36982;51.474;7.228;2023-11-19T12:27:47;13.57;;;2.17;;
50968;SDS011;36982;51.474;7.228;2023-11-19T12:30:24;14.23;;;2.57;;
50968;SDS011;36982;51.474;7.228;2023-11-19T12:32:50;10.50;;;2.20;;
50968;SDS011;36982;51.474;7.228;2023-11-19T12:35:18;8.70;;;2.77;;
50968;SDS011;36982;51.474;7.228;2023-11-19T12:42:47;13.00;;;2.13;;
50968;SDS011;36982;51.474;7.228;2023-11-19T12:45:13;9.90;;;2.57;;
50968;SDS011;36982;51.474;7.228;2023-11-19T12:47:41;9.80;;;2.30;;
50968;SDS011;36982;51.474;7.228;2023-11-19T12:50:12;15.47;;;2.37;;
50968;SDS011;36982;51.474;7.228;2023-11-19T12:52:37;9.73;;;2.73;;
50968;SDS011;36982;51.474;7.228;2023-11-19T12:55:04;14.20;;;2.27;;
50968;SDS011;36982;51.474;7.228;2023-11-19T12:57:40;9.70;;;2.00;;
50968;SDS011;36982;51.474;7.228;2023-11-19T13:00:06;9.47;;;2.00;;
50968;SDS011;36982;51.474;7.228;2023-11-19T13:02:46;13.90;;;2.73;;
50968;SDS011;36982;51.474;7.228;2023-11-19T13:07:48;16.63;;;2.77;;
50968;SDS011;36982;51.474;7.228;2023-11-19T13:10:13;10.07;;;2.20;;
50968;SDS011;36982;51.474;7.228;2023-11-19T13:12:40;10.93;;;2.63;;
50968;SDS011;36982;51.474;7.228;2023-11-19T13:15:06;12.03;;;2.00;;
50968;SDS011;36982;51.474;7.228;2023-11-19T13:17:47;11.70;;;2.30;;
50968;SDS011;36982;51.474;7.228;2023-11-19T13:20:12;10.23;;;2.43;;
50968;SDS011;36982;51.474;7.228;2023-11-19T13:22:39;8.97;;;2.00;;
50968;SDS011;36982;51.474;7.228;2023-11-19T13:25:25;7.30;;;2.30;;
50968;SDS011;36982;51.474;7.228;2023-11-19T13:27:51;10.73;;;3.10;;
50968;SDS011;36982;51.474;7.228;2023-11-19T13:30:17;8.30;;;1.80;;
50968;SDS011;36982;51.474;7.228;2023-11-19T13:32:43;9.83;;;1.73;;
50968;SDS011;36982;51.474;7.228;2023-11-19T13:35:11;7.73;;;2.10;;
50968;SDS011;36982;51.474;7.228;2023-11-19T13:37:37;8.67;;;2.23;;
50968;SDS011;36982;51.474;7.228;2023-11-19T13:40:03;10.17;;;2.00;;
50968;SDS011;36982;51.474;7.228;2023-11-19T13:42:29;7.57;;;1.90;;
50968;SDS011;36982;51.474;7.228;2023-11-19T13:44:55;8.80;;;2.20;;
50968;SDS011;36982;51.474;7.228;2023-11-19T13:47:21;12.53;;;3.40;;
50968;SDS011;36982;51.474;7.228;2023-11-19T13:49:47;9.17;;;2.33;;
50968;SDS011;36982;51.474;7.228;2023-11-19T13:52:12;16.70;;;2.67;;
50968;SDS011;36982;51.474;7.228;2023-11-19T13:54:38;11.97;;;2.33;;
50968;SDS011;36982;51.474;7.228;2023-11-19T13:57:03;10.80;;;1.90;;
50968;SDS011;36982;51.474;7.228;2023-11-19T13:59:30;9.90;;;2.83;;
50968;SDS011;36982;51.474;7.228;2023-11-19T14:01:57;9.00;;;2.20;;
50968;SDS011;36982;51.474;7.228;2023-11-19T14:04:23;7.97;;;2.23;;
50968;SDS011;36982;51.474;7.228;2023-11-19T14:06:49;14.57;;;2.43;;
50968;SDS011;36982;51.474;7.228;2023-11-19T14:09:14;7.70;;;2.30;;
50968;SDS011;36982;51.474;7.228;2023-11-19T14:11:40;8.30;;;2.30;;
50968;SDS011;36982;51.474;7.228;2023-11-19T14:14:07;13.90;;;3.50;;
50968;SDS011;36982;51.474;7.228;2023-11-19T14:16:33;13.07;;;2.60;;
50968;SDS011;36982;51.474;7.228;2023-11-19T14:18:59;14.93;;;2.87;;
50968;SDS011;36982;51.474;7.228;2023-11-19T14:21:25;8.70;;;2.03;;
50968;SDS011;36982;51.474;7.228;2023-11-19T14:23:51;13.90;;;2.40;;
50968;SDS011;36982;51.474;7.228;2023-11-19T14:26:17;10.23;;;2.30;;
50968;SDS011;36982;51.474;7.228;2023-11-19T14:28:43;9.83;;;1.97;;
50968;SDS011;36982;51.474;7.228;2023-11-19T14:31:08;12.07;;;2.30;;
50968;SDS011;36982;51.474;7.228;2023-11-19T14:33:34;7.93;;;2.13;;
50968;SDS011;36982;51.474;7.228;2023-11-19T14:36:01;8.53;;;1.80;;
50968;SDS011;36982;51.474;7.228;2023-11-19T14:38:27;10.60;;;2.83;;
50968;SDS011;36982;51.474;7.228;2023-11-19T14:40:52;9.10;;;2.10;;
50968;SDS011;36982;51.474;7.228;2023-11-19T14:43:19;9.47;;;2.63;;
50968;SDS011;36982;51.474;7.228;2023-11-19T14:45:45;14.23;;;2.40;;
50968;SDS011;36982;51.474;7.228;2023-11-19T14:48:10;16.80;;;2.63;;
50968;SDS011;36982;51.474;7.228;2023-11-19T14:50:36;11.70;;;2.40;;
50968;SDS011;36982;51.474;7.228;2023-11-19T14:53:02;9.53;;;2.20;;
50968;SDS011;36982;51.474;7.228;2023-11-19T14:55:28;11.27;;;2.40;;
50968;SDS011;36982;51.474;7.228;2023-11-19T14:57:53;7.00;;;1.87;;
50968;SDS011;36982;51.474;7.228;2023-11-19T15:00:19;11.97;;;2.17;;
50968;SDS011;36982;51.474;7.228;2023-11-19T15:02:46;9.97;;;2.47;;
50968;SDS011;36982;51.474;7.228;2023-11-19T15:05:11;14.53;;;2.63;;
50968;SDS011;36982;51.474;7.228;2023-11-19T15:07:38;14.33;;;2.20;;
50968;SDS011;36982;51.474;7.228;2023-11-19T15:10:05;10.53;;;2.13;;
50968;SDS011;36982;51.474;7.228;2023-11-19T15:12:38;14.27;;;3.10;;
50968;SDS011;36982;51.474;7.228;2023-11-19T15:15:07;13.10;;;2.63;;
50968;SDS011;36982;51.474;7.228;2023-11-19T15:17:34;13.83;;;2.50;;